高知空港の過去48時間の天気

高知空港 (Kochi)

現在時刻: 10/20 03:42 JST (10/19 18:42 UTC) 以下の時間は現地時間です。

過去48時間のMETAR気象情報
時間 風向 風速(m/s) 視程 気温(℃) 湿度(%) 気圧(hPa) 天気現象
19 20:00 3 10km以上 17 63 1017
19 19:00 4 10km以上 18 60 1017
19 18:00 3 10km以上 19 56 1016
19 17:00 東南東 2 10km以上 20 53 1015
19 16:00 2 10km以上 22 46 1015
19 15:00 3 10km以上 23 41 1015
19 14:00 4 10km以上 23 44 1015
19 13:00 南南西 3 10km以上 23 41 1015
19 12:00 3 10km以上 23 47 1016
19 11:00 南南西 4 10km以上 22 50 1016
19 10:00 不定 2 10km以上 22 50 1017
19 09:00 4 10km以上 21 53 1017
19 08:00 北北西 4 10km以上 18 73 1017
19 07:00 北北西 4 10km以上 15 82 1016
19 06:10 4 10km以上 15 77 1016
18 20:00 北北東 2 10km以上 18 77 1015
18 19:00 東北東 2 10km以上 18 77 1015
18 18:00 不定 1 10km以上 19 68 1014
18 17:00 2 10km以上 21 60 1014
18 16:00 3 10km以上 22 57 1013
18 15:00 4 10km以上 23 53 1013
18 14:00 4 10km以上 23 47 1012
18 13:00 4 10km以上 23 47 1013
18 12:00 3 10km以上 23 53 1013
18 11:00 3 10km以上 23 53 1014
18 10:00 不定 1 10km以上 22 50 1014
18 09:00 3 10km以上 20 56 1014
18 08:00 北北西 5 10km以上 17 68 1014
18 07:00 北北西 3 10km以上 14 77 1014
18 06:10 北北西 3 10km以上 13 82 1013
RJOK 191100Z 36005KT 9999 FEW030 SCT/// 17/10 Q1017
RJOK 191000Z 01007KT 9999 FEW030 BKN/// 18/10 Q1017
RJOK 190900Z 01005KT 9999 FEW030 SCT080 BKN/// 19/10 Q1016
RJOK 190800Z 11004KT 9999 FEW030 SCT040 20/10 Q1015
RJOK 190700Z 18003KT 130V220 9999 FEW030 SCT040 22/10 Q1015
RJOK 190600Z 17006KT 9999 FEW035 23/09 Q1015
RJOK 190500Z 18007KT 150V240 9999 FEW035 23/10 Q1015
RJOK 190400Z 20005KT 160V240 9999 FEW035 23/09 Q1015
RJOK 190300Z 19006KT 9999 FEW035 23/11 Q1016
RJOK 190200Z 20007KT 9999 FEW030 22/11 Q1016
RJOK 190100Z VRB03KT 9999 FEW030 22/11 Q1017
RJOK 190000Z 35008KT 9999 FEW030 21/11 Q1017
RJOK 182300Z 34008KT 9999 FEW025 18/13 Q1017
RJOK 182200Z 34008KT 9999 FEW025 SCT060 15/12 Q1016
RJOK 182110Z 35007KT 9999 FEW025 SCT060 15/11 Q1016 RMK 1CU025 3SC060 A3000
RJOK 181100Z 02004KT 9999 FEW035 18/14 Q1015
RJOK 181000Z 06003KT 9999 FEW020 18/14 Q1015
RJOK 180900Z VRB01KT 9999 SCT035 19/13 Q1014
RJOK 180800Z 17004KT 130V220 9999 FEW035 SCT040 21/13 Q1014
RJOK 180700Z 18005KT 140V200 9999 FEW035 SCT060 22/13 Q1013
RJOK 180600Z 17007KT 9999 FEW035 23/13 Q1013
RJOK 180500Z 18008KT 150V230 9999 FEW035 23/11 Q1012
RJOK 180400Z 17007KT 140V200 9999 FEW035 23/11 Q1013
RJOK 180300Z 17006KT 130V210 9999 FEW035 23/13 Q1013
RJOK 180200Z 17006KT 130V190 9999 FEW035 23/13 Q1014
RJOK 180100Z VRB02KT 9999 FEW030 SCT/// 22/11 Q1014
RJOK 180000Z 35006KT 310V010 9999 FEW030 SCT/// 20/11 Q1014
RJOK 172300Z 34009KT 9999 FEW010 SCT/// 17/11 Q1014
RJOK 172200Z 34006KT 9999 FEW010 14/10 Q1014
RJOK 172110Z 34006KT 9999 FEW010 13/10 Q1013 RMK 1ST010 A2993